Time;durP1;ratioP1;P1;durP2;ratioP2;P2;SDS_P1;SDS_P2;PMS_P1;PMS_P2;Temp;Humidity;BMP_temperature;BMP_pressure;BME280_temperature;BME280_humidity;BME280_pressure;Samples;Min_cycle;Max_cycle;Signal;HPM_P1;HPM_P2
2023/08/22 00:00:15;;;;;;;18.00;10.80;;;;;;;28.13;58.20;98475.25;4426063;32;20172;-82
2023/08/22 00:02:42;;;;;;;17.52;10.55;;;;;;;28.30;57.47;98482.25;4426103;32;20069;-82
2023/08/22 00:05:09;;;;;;;19.67;11.12;;;;;;;28.43;56.95;98479.09;4425674;32;20113;-83
2023/08/22 00:07:38;;;;;;;15.48;10.40;;;;;;;27.96;58.81;98471.75;4426022;32;20102;-82
2023/08/22 00:10:07;;;;;;;17.10;9.85;;;;;;;28.19;57.35;98474.59;4426133;32;20129;-82
2023/08/22 00:12:34;;;;;;;17.23;10.80;;;;;;;28.12;57.62;98471.78;4425672;32;20100;-83
2023/08/22 00:15:04;;;;;;;16.92;10.00;;;;;;;27.95;58.10;98467.47;4425867;32;20113;-82
2023/08/22 00:17:31;;;;;;;16.20;10.77;;;;;;;28.02;58.05;98470.28;4412410;32;20436;-82
2023/08/22 00:19:58;;;;;;;16.67;10.93;;;;;;;27.96;57.85;98469.09;4425623;32;20107;-82
2023/08/22 00:22:25;;;;;;;15.85;10.10;;;;;;;27.68;59.16;98471.25;4425943;32;20145;-82
2023/08/22 00:24:51;;;;;;;16.40;10.32;;;;;;;27.80;58.70;98467.28;4425684;32;20109;-83
2023/08/22 00:27:18;;;;;;;16.25;10.90;;;;;;;27.78;58.40;98473.75;4425826;32;20105;-82
2023/08/22 00:29:45;;;;;;;15.18;9.85;;;;;;;27.86;58.32;98469.28;4425925;32;20561;-82
2023/08/22 00:32:12;;;;;;;16.55;10.95;;;;;;;27.51;59.53;98469.53;4425577;32;20184;-83
2023/08/22 00:34:39;;;;;;;15.07;9.35;;;;;;;27.88;58.35;98461.19;4425751;32;20150;-82
2023/08/22 00:37:06;;;;;;;14.75;9.98;;;;;;;28.08;57.63;98464.34;4424886;32;20384;-82
2023/08/22 00:39:33;;;;;;;15.23;9.75;;;;;;;27.81;58.94;98460.16;4425422;32;20158;-82
2023/08/22 00:42:00;;;;;;;15.43;10.15;;;;;;;27.62;59.31;98455.97;4425880;32;20092;-82
2023/08/22 00:44:27;;;;;;;15.77;10.55;;;;;;;27.30;60.29;98446.97;4425786;32;20086;-82
2023/08/22 00:46:54;;;;;;;15.60;10.20;;;;;;;27.56;59.19;98446.87;4425329;32;20476;-82
2023/08/22 00:49:21;;;;;;;18.00;10.45;;;;;;;27.43;59.82;98449.13;4425924;32;20140;-82
2023/08/22 00:51:48;;;;;;;16.40;9.98;;;;;;;27.43;59.70;98445.66;4425779;32;20465;-82
2023/08/22 00:54:15;;;;;;;15.48;10.10;;;;;;;27.60;58.82;98445.53;4425287;32;20110;-82
2023/08/22 00:56:42;;;;;;;16.42;10.30;;;;;;;27.02;60.17;98440.25;4425694;32;20149;-82
2023/08/22 00:59:09;;;;;;;15.73;9.90;;;;;;;27.51;59.04;98443.03;4425694;32;20157;-82
2023/08/22 01:01:36;;;;;;;15.68;10.30;;;;;;;27.28;59.48;98433.03;4411645;32;20440;-82
2023/08/22 01:04:03;;;;;;;17.85;10.63;;;;;;;27.32;59.76;98439.66;4425623;32;20101;-82
2023/08/22 01:06:52;;;;;;;17.67;10.38;;;;;;;27.27;60.28;98436.69;4425665;32;20166;-82
2023/08/22 01:09:30;;;;;;;18.40;11.25;;;;;;;27.25;60.19;98436.03;4425467;32;20111;-83
2023/08/22 01:12:14;;;;;;;17.42;10.95;;;;;;;27.19;60.21;98441.13;4425695;32;20121;-82
2023/08/22 01:14:45;;;;;;;17.73;9.77;;;;;;;27.91;57.84;98445.75;4411504;32;20123;-82
2023/08/22 01:17:13;;;;;;;18.52;10.55;;;;;;;27.89;57.50;98441.62;4399345;32;20167;-82
2023/08/22 01:19:40;;;;;;;16.83;10.65;;;;;;;27.86;57.07;98439.28;4425501;32;20124;-82
2023/08/22 01:22:07;;;;;;;15.05;10.25;;;;;;;27.21;59.19;98431.19;4411585;32;20424;-82
2023/08/22 01:24:34;;;;;;;16.87;10.88;;;;;;;27.26;59.55;98442.16;4425608;32;20137;-82
2023/08/22 01:27:01;;;;;;;16.02;10.40;;;;;;;27.36;59.61;98430.44;4411586;32;20118;-81
2023/08/22 01:29:40;;;;;;;15.93;10.65;;;;;;;27.60;59.15;98436.75;4411471;32;20172;-82
2023/08/22 01:32:07;;;;;;;16.58;10.88;;;;;;;27.29;60.41;98434.69;4411891;32;20082;-82
2023/08/22 01:34:37;;;;;;;16.33;10.52;;;;;;;27.75;58.63;98437.78;4425342;32;20094;-82
2023/08/22 01:37:06;;;;;;;16.02;10.45;;;;;;;27.77;58.16;98441.13;4411236;32;20098;-82
2023/08/22 01:39:33;;;;;;;15.88;11.00;;;;;;;27.42;59.31;98438.69;4411699;32;20095;-82
2023/08/22 01:42:00;;;;;;;16.77;11.00;;;;;;;27.21;60.14;98436.50;4411438;32;20164;-83
2023/08/22 01:44:28;;;;;;;17.60;11.63;;;;;;;27.37;59.90;98431.25;4425452;32;20105;-82
2023/08/22 01:46:55;;;;;;;16.48;10.40;;;;;;;27.10;60.74;98433.16;4425022;32;20085;-82
2023/08/22 01:49:23;;;;;;;17.00;10.90;;;;;;;27.27;60.68;98434.03;4425081;32;20463;-83
2023/08/22 01:51:49;;;;;;;15.27;10.38;;;;;;;27.44;60.25;98434.91;4411648;32;20085;-82
2023/08/22 01:54:16;;;;;;;17.50;10.48;;;;;;;27.85;59.06;98435.78;4425245;32;20120;-82
2023/08/22 01:56:43;;;;;;;15.40;10.30;;;;;;;27.49;59.81;98437.91;4424904;32;20132;-82
2023/08/22 01:59:12;;;;;;;16.27;10.50;;;;;;;27.98;57.89;98430.03;4425393;32;20101;-82
2023/08/22 02:01:39;;;;;;;18.12;11.90;;;;;;;28.45;56.03;98435.44;4425380;32;20116;-82
2023/08/22 02:04:06;;;;;;;16.52;10.98;;;;;;;28.41;55.52;98428.81;4411207;32;20105;-82
2023/08/22 02:06:33;;;;;;;15.68;10.32;;;;;;;28.23;56.07;98434.28;4425289;32;20094;-82
2023/08/22 02:09:00;;;;;;;16.75;10.90;;;;;;;28.72;54.85;98430.75;4425096;32;20108;-82
2023/08/22 02:11:27;;;;;;;18.10;11.45;;;;;;;28.09;56.49;98424.38;4424885;32;20107;-82
2023/08/22 02:13:55;;;;;;;17.40;10.65;;;;;;;28.21;56.47;98425.69;4425046;32;20098;-82
2023/08/22 02:16:23;;;;;;;18.48;10.18;;;;;;;28.43;55.61;98421.53;4425127;32;20098;-82
2023/08/22 02:18:50;;;;;;;16.45;10.43;;;;;;;28.20;56.02;98424.03;4424815;32;20166;-82
2023/08/22 02:21:17;;;;;;;17.33;10.65;;;;;;;27.85;56.57;98425.19;4425149;32;20192;-82
2023/08/22 02:23:44;;;;;;;15.52;9.45;;;;;;;27.55;57.24;98423.19;4425184;32;20098;-82
2023/08/22 02:26:11;;;;;;;16.33;10.38;;;;;;;27.46;57.80;98426.81;4424668;32;20161;-82
2023/08/22 02:28:38;;;;;;;14.38;9.75;;;;;;;27.39;57.90;98430.09;4425080;32;20090;-82
2023/08/22 02:31:05;;;;;;;16.23;10.82;;;;;;;27.57;57.73;98423.84;4425045;32;20089;-82
2023/08/22 02:33:32;;;;;;;17.58;10.98;;;;;;;27.48;58.27;98423.00;4424911;32;20389;-82
2023/08/22 02:35:59;;;;;;;17.52;10.52;;;;;;;26.99;60.17;98422.81;4424906;32;20372;-82
2023/08/22 02:38:27;;;;;;;18.10;11.05;;;;;;;26.70;61.02;98425.88;4424644;32;21170;-83
2023/08/22 02:40:54;;;;;;;18.12;10.65;;;;;;;26.80;60.84;98423.09;4424660;32;20073;-82
2023/08/22 02:43:21;;;;;;;18.23;10.77;;;;;;;26.90;60.71;98438.84;4424914;32;20110;-82
2023/08/22 02:45:48;;;;;;;17.17;10.43;;;;;;;27.49;58.16;98424.66;4424500;32;20144;-81
2023/08/22 02:48:15;;;;;;;15.88;11.02;;;;;;;27.38;58.08;98430.25;4424836;32;20077;-82
2023/08/22 02:50:42;;;;;;;18.45;10.90;;;;;;;27.08;59.17;98426.38;4424814;32;20141;-82
2023/08/22 02:53:11;;;;;;;16.70;10.18;;;;;;;26.76;59.72;98433.16;4424531;32;20109;-82
2023/08/22 02:55:37;;;;;;;16.98;10.68;;;;;;;27.06;59.43;98433.66;4424608;32;20122;-82
2023/08/22 02:58:05;;;;;;;16.73;10.65;;;;;;;27.03;59.68;98431.31;4424700;32;20102;-82
2023/08/22 03:00:33;;;;;;;17.37;10.77;;;;;;;26.89;59.94;98429.22;4428752;32;20103;-82
2023/08/22 03:03:00;;;;;;;17.40;10.95;;;;;;;26.65;61.45;98429.97;4429752;32;20533;-81
2023/08/22 03:05:27;;;;;;;19.30;11.25;;;;;;;26.63;61.47;98432.78;4429569;32;20094;-81
2023/08/22 03:07:54;;;;;;;19.85;10.95;;;;;;;26.50;61.95;98425.25;4429371;32;20168;-82
2023/08/22 03:10:21;;;;;;;17.33;11.18;;;;;;;26.47;62.57;98422.09;4429653;32;20353;-82
2023/08/22 03:12:50;;;;;;;17.55;11.60;;;;;;;26.64;62.48;98417.72;4429664;32;20142;-82
2023/08/22 03:15:17;;;;;;;17.25;11.23;;;;;;;26.81;61.57;98419.47;4429051;32;20105;-81
2023/08/22 03:17:44;;;;;;;17.73;9.73;;;;;;;27.25;59.24;98420.12;4429523;32;20081;-82
2023/08/22 03:20:11;;;;;;;18.00;10.85;;;;;;;27.16;59.35;98421.09;4429552;32;20082;-82
2023/08/22 03:22:38;;;;;;;18.30;10.98;;;;;;;26.91;59.93;98422.00;4429300;32;20161;-82
2023/08/22 03:25:05;;;;;;;17.08;10.45;;;;;;;27.07;59.43;98424.72;4429391;32;20115;-82
2023/08/22 03:27:32;;;;;;;19.50;11.55;;;;;;;26.79;60.19;98422.25;4415242;32;20085;-83
2023/08/22 03:29:59;;;;;;;19.23;11.23;;;;;;;27.28;58.64;98417.16;4429373;32;20492;-82
2023/08/22 03:32:26;;;;;;;15.50;10.18;;;;;;;27.16;59.40;98422.91;4429289;32;20098;-82
2023/08/22 03:34:53;;;;;;;16.10;10.52;;;;;;;27.31;58.94;98418.63;4428918;32;20081;-82
2023/08/22 03:37:20;;;;;;;17.98;11.55;;;;;;;27.13;59.56;98424.06;4429222;32;20166;-82
2023/08/22 03:39:47;;;;;;;15.48;10.40;;;;;;;26.62;61.61;98423.19;4428958;32;20157;-82
2023/08/22 03:42:14;;;;;;;16.98;10.75;;;;;;;27.25;59.27;98419.31;4428842;32;20153;-82
2023/08/22 03:44:41;;;;;;;15.45;10.35;;;;;;;27.00;59.74;98418.34;4429089;32;20098;-82
2023/08/22 03:47:08;;;;;;;18.67;10.48;;;;;;;27.50;58.40;98426.28;4428913;32;20107;-82
2023/08/22 03:49:35;;;;;;;16.10;10.23;;;;;;;26.97;59.64;98427.44;4428696;32;20139;-82
2023/08/22 03:52:03;;;;;;;18.25;10.30;;;;;;;27.26;59.04;98427.09;4415260;32;20163;-82
2023/08/22 03:54:30;;;;;;;18.83;10.80;;;;;;;27.07;59.76;98427.34;4428922;32;20101;-82
2023/08/22 03:56:57;;;;;;;16.10;10.35;;;;;;;27.36;58.38;98425.13;4428530;32;20480;-82
2023/08/22 03:59:24;;;;;;;17.60;10.65;;;;;;;27.50;57.45;98425.47;4428958;32;20074;-82
2023/08/22 04:01:50;;;;;;;17.20;10.38;;;;;;;26.96;59.48;98425.78;4428900;32;20101;-82
2023/08/22 04:04:17;;;;;;;18.48;11.02;;;;;;;26.98;59.27;98426.47;4428517;32;20089;-82
2023/08/22 04:06:45;;;;;;;18.02;10.93;;;;;;;26.71;60.52;98430.16;4428758;32;20455;-81
2023/08/22 04:09:12;;;;;;;17.05;11.15;;;;;;;26.64;61.03;98425.66;4428845;32;20111;-82
2023/08/22 04:11:42;;;;;;;15.63;10.57;;;;;;;26.83;60.71;98425.41;4426182;32;20448;-82
2023/08/22 04:14:09;;;;;;;17.08;10.60;;;;;;;26.96;60.54;98417.03;4426023;32;20115;-81
2023/08/22 04:16:36;;;;;;;18.15;11.07;;;;;;;27.41;59.51;98426.44;4425555;32;20089;-82
2023/08/22 04:19:03;;;;;;;16.90;10.70;;;;;;;27.43;59.79;98433.22;4425980;32;20111;-82
2023/08/22 04:21:30;;;;;;;20.83;11.60;;;;;;;27.99;57.81;98436.16;4426064;32;20086;-82
2023/08/22 04:23:57;;;;;;;17.70;10.07;;;;;;;28.02;57.49;98435.81;4425602;32;20169;-82
2023/08/22 04:26:24;;;;;;;18.98;10.45;;;;;;;28.04;57.04;98431.16;4425964;32;20466;-82
2023/08/22 04:28:51;;;;;;;15.10;10.25;;;;;;;28.41;55.99;98425.34;4425791;32;20077;-82
2023/08/22 04:31:18;;;;;;;19.55;10.82;;;;;;;28.06;56.18;98429.16;4425573;32;20161;-82
2023/08/22 04:33:45;;;;;;;15.25;10.23;;;;;;;28.42;55.14;98427.81;4425856;32;20128;-82
2023/08/22 04:36:12;;;;;;;15.93;10.48;;;;;;;28.40;54.84;98432.47;4425708;32;20135;-82
2023/08/22 04:38:39;;;;;;;14.82;9.57;;;;;;;28.40;55.34;98434.31;4425467;32;20164;-82
2023/08/22 04:41:06;;;;;;;16.10;9.98;;;;;;;28.56;54.61;98436.09;4425593;32;20169;-82
2023/08/22 04:43:33;;;;;;;17.33;10.07;;;;;;;28.75;54.23;98438.34;4425870;32;20093;-82
2023/08/22 04:46:02;;;;;;;19.65;10.43;;;;;;;28.70;54.76;98438.03;4425391;32;20172;-82
2023/08/22 04:48:29;;;;;;;16.50;10.00;;;;;;;28.96;54.33;98443.94;4425695;32;20104;-82
2023/08/22 04:50:56;;;;;;;16.90;10.27;;;;;;;28.61;55.08;98444.38;4425769;32;20108;-82
2023/08/22 04:53:24;;;;;;;15.02;10.43;;;;;;;28.84;54.72;98449.78;4425409;32;20141;-83
2023/08/22 04:55:51;;;;;;;17.48;10.90;;;;;;;28.58;55.92;98445.53;4425612;32;20364;-82
2023/08/22 04:58:18;;;;;;;16.60;10.38;;;;;;;29.08;54.16;98444.38;4425662;32;20073;-82
2023/08/22 05:00:45;;;;;;;15.00;10.60;;;;;;;28.93;54.85;98449.62;4425321;32;20085;-83
2023/08/22 05:03:14;;;;;;;16.73;10.75;;;;;;;29.15;54.29;98453.34;4425682;32;20089;-82
2023/08/22 05:05:42;;;;;;;14.73;10.63;;;;;;;29.48;53.30;98447.88;4425288;32;20108;-82
2023/08/22 05:08:09;;;;;;;16.40;10.52;;;;;;;29.51;53.60;98453.66;4425712;32;20073;-82
2023/08/22 05:10:36;;;;;;;15.18;10.20;;;;;;;29.47;53.95;98448.84;4425665;32;20141;-82
2023/08/22 05:13:03;;;;;;;14.40;9.55;;;;;;;29.89;53.13;98451.06;4425321;32;20107;-83
2023/08/22 05:15:30;;;;;;;16.77;9.95;;;;;;;30.56;51.46;98448.47;4425576;32;20120;-83
2023/08/22 05:17:57;;;;;;;14.85;9.63;;;;;;;31.34;49.45;98445.22;4425537;32;20584;-83
2023/08/22 05:20:24;;;;;;;15.50;8.57;;;;;;;31.89;48.00;98438.41;4425258;32;20161;-83
2023/08/22 05:22:51;;;;;;;14.15;9.15;;;;;;;32.87;45.94;98455.41;4425061;32;20162;-83
2023/08/22 05:25:18;;;;;;;12.75;8.40;;;;;;;33.44;44.87;98456.06;4425459;32;20104;-83
2023/08/22 05:27:45;;;;;;;13.57;8.30;;;;;;;34.15;43.63;98454.53;4425170;32;20425;-83
2023/08/22 05:30:12;;;;;;;12.05;8.20;;;;;;;34.61;42.69;98452.84;4425486;32;20409;-83
2023/08/22 05:32:40;;;;;;;13.18;7.65;;;;;;;35.35;41.37;98455.09;4425535;32;20342;-83
2023/08/22 05:35:07;;;;;;;13.23;8.18;;;;;;;35.81;40.52;98454.00;4425099;32;20093;-83
2023/08/22 05:37:34;;;;;;;13.80;8.25;;;;;;;36.15;40.08;98458.91;4427600;32;20104;-83
2023/08/22 05:40:02;;;;;;;14.60;7.78;;;;;;;36.68;39.67;98463.00;4429801;32;20070;-83
2023/08/22 05:42:29;;;;;;;11.88;8.18;;;;;;;37.28;38.63;98463.97;4429289;32;20428;-82
2023/08/22 05:44:56;;;;;;;13.32;8.30;;;;;;;37.96;37.52;98460.13;4428681;32;20156;-85
2023/08/22 05:47:23;;;;;;;12.05;7.75;;;;;;;38.27;36.71;98464.44;4427026;32;20100;-83
2023/08/22 05:49:50;;;;;;;12.27;8.13;;;;;;;38.64;36.20;98464.19;4412597;32;20094;-81
2023/08/22 05:52:18;;;;;;;14.23;8.43;;;;;;;39.09;35.25;98472.47;4426098;32;20086;-82
2023/08/22 05:54:45;;;;;;;12.57;7.70;;;;;;;39.36;34.94;98470.06;4425309;32;20593;-84
2023/08/22 05:57:22;;;;;;;12.63;8.35;;;;;;;39.42;34.92;98470.97;4430073;32;20090;-83
2023/08/22 05:59:49;;;;;;;11.60;8.15;;;;;;;39.59;34.84;98474.56;4433847;32;20130;-84
2023/08/22 06:02:16;;;;;;;11.77;8.13;;;;;;;39.66;34.44;98475.22;4427479;32;20132;-84
2023/08/22 06:04:45;;;;;;;12.00;8.55;;;;;;;39.45;34.54;98478.56;4425376;32;20103;-83
2023/08/22 06:08:02;;;;;;;12.45;8.70;;;;;;;39.11;35.22;98477.66;4416420;32;20074;-81
2023/08/22 06:10:29;;;;;;;12.77;8.52;;;;;;;38.74;36.04;98473.38;4432351;32;20070;-79
2023/08/22 06:12:55;;;;;;;11.52;8.38;;;;;;;38.42;36.50;98480.16;4435674;32;20111;-79
2023/08/22 06:15:23;;;;;;;14.18;8.40;;;;;;;38.27;37.30;98482.47;4434440;32;20097;-78
2023/08/22 06:17:50;;;;;;;14.02;8.73;;;;;;;38.03;38.18;98484.28;4438696;32;20116;-78
2023/08/22 06:20:17;;;;;;;12.43;8.90;;;;;;;38.00;38.43;98490.97;4430439;32;20145;-80
2023/08/22 06:22:44;;;;;;;17.20;9.13;;;;;;;38.07;37.34;98486.31;4417550;32;20121;-79
2023/08/22 06:25:11;;;;;;;12.68;8.20;;;;;;;38.87;36.22;98490.34;4432422;32;20105;-79
2023/08/22 06:27:38;;;;;;;14.50;8.70;;;;;;;38.54;37.01;98480.97;4431551;32;20699;-79
2023/08/22 06:30:06;;;;;;;12.73;8.35;;;;;;;39.15;35.96;98479.66;4431194;32;20053;-79
2023/08/22 06:32:33;;;;;;;13.75;9.05;;;;;;;39.51;36.02;98475.75;4432116;32;20050;-79
2023/08/22 06:35:00;;;;;;;11.50;8.27;;;;;;;39.49;36.18;98480.56;4430604;32;20068;-79
2023/08/22 06:37:28;;;;;;;15.02;8.82;;;;;;;39.75;35.09;98472.94;4428959;32;20086;-79
2023/08/22 06:39:55;;;;;;;11.88;8.85;;;;;;;40.32;33.96;98470.97;4428476;32;20157;-80
2023/08/22 06:42:22;;;;;;;14.00;9.10;;;;;;;40.00;34.93;98480.72;4428747;32;20072;-80
2023/08/22 06:44:49;;;;;;;13.27;9.18;;;;;;;40.80;34.00;98480.31;4428287;32;20802;-80
2023/08/22 06:47:18;;;;;;;12.85;7.97;;;;;;;40.71;33.24;98474.50;4428089;32;20078;-80
2023/08/22 06:49:45;;;;;;;12.27;8.23;;;;;;;40.60;33.50;98485.44;4428355;32;20740;-80
2023/08/22 06:52:12;;;;;;;13.48;9.00;;;;;;;40.38;33.83;98478.06;4428045;32;20093;-80
2023/08/22 06:54:39;;;;;;;12.52;7.87;;;;;;;40.45;33.03;98480.66;4427561;32;20141;-80
2023/08/22 06:57:07;;;;;;;14.00;8.35;;;;;;;40.97;32.09;98477.59;4427576;32;20061;-81
2023/08/22 06:59:34;;;;;;;12.45;8.23;;;;;;;41.17;31.95;98479.75;4426204;32;20157;-81
2023/08/22 07:02:01;;;;;;;10.85;7.45;;;;;;;40.40;32.83;98475.94;4427303;32;20125;-80
2023/08/22 07:04:31;;;;;;;11.80;8.35;;;;;;;41.20;30.67;98487.34;4426824;32;20805;-79
2023/08/22 07:06:58;;;;;;;13.52;7.87;;;;;;;41.72;30.89;98478.75;4426379;32;20054;-79
2023/08/22 07:09:25;;;;;;;12.02;8.30;;;;;;;42.02;30.35;98487.16;4426783;32;20102;-79
2023/08/22 07:11:52;;;;;;;11.43;7.22;;;;;;;41.59;29.73;98478.06;4428314;32;20081;-80
2023/08/22 07:14:19;;;;;;;12.65;7.68;;;;;;;40.85;30.24;98471.50;4426462;32;20483;-81
2023/08/22 07:16:46;;;;;;;11.52;7.40;;;;;;;41.49;29.96;98474.44;4424636;32;20145;-81
2023/08/22 07:19:15;;;;;;;11.52;7.10;;;;;;;41.07;29.82;98479.63;4424149;32;20094;-80
2023/08/22 07:21:58;;;;;;;10.68;7.40;;;;;;;40.62;30.40;98480.59;4424564;32;20101;-81
2023/08/22 07:24:25;;;;;;;12.60;7.20;;;;;;;41.15;29.21;98482.66;4424385;32;20169;-80
2023/08/22 07:26:51;;;;;;;10.80;7.62;;;;;;;42.45;26.80;98479.91;4423823;32;20078;-81
2023/08/22 07:29:18;;;;;;;11.20;7.22;;;;;;;42.28;27.12;98490.91;4425354;32;20161;-81
2023/08/22 07:31:45;;;;;;;12.10;8.25;;;;;;;41.96;27.18;98487.34;4424265;32;20115;-80
2023/08/22 07:34:12;;;;;;;12.02;7.97;;;;;;;41.45;29.47;98481.41;4423907;32;20497;-80
2023/08/22 07:36:39;;;;;;;11.82;7.82;;;;;;;41.35;29.87;98479.41;4424017;32;20451;-80
2023/08/22 07:39:06;;;;;;;12.70;7.43;;;;;;;40.88;30.24;98471.81;4421977;32;20149;-80
2023/08/22 07:41:33;;;;;;;11.40;7.25;;;;;;;41.17;29.89;98479.75;4408639;32;20165;-80
2023/08/22 07:44:00;;;;;;;10.10;6.87;;;;;;;42.43;25.97;98477.47;4408990;32;20462;-81
2023/08/22 07:46:27;;;;;;;12.00;7.00;;;;;;;42.59;25.94;98478.38;4410338;32;20414;-81
2023/08/22 07:48:54;;;;;;;10.98;6.85;;;;;;;42.56;25.78;98478.94;4410508;32;20085;-81
2023/08/22 07:51:21;;;;;;;10.88;6.93;;;;;;;42.27;25.61;98469.47;4410903;32;20108;-81
2023/08/22 07:53:48;;;;;;;11.75;7.10;;;;;;;42.24;26.00;98481.66;4410843;32;20086;-81
2023/08/22 07:56:15;;;;;;;12.27;7.37;;;;;;;42.09;26.21;98484.22;4410415;32;20154;-81
2023/08/22 07:58:42;;;;;;;13.50;7.78;;;;;;;42.70;25.93;98480.06;4410887;32;20150;-82
2023/08/22 08:01:09;;;;;;;12.77;7.50;;;;;;;42.51;26.13;98480.75;4410484;32;20085;-82
2023/08/22 08:03:38;;;;;;;10.90;7.10;;;;;;;42.39;25.71;98480.94;4410789;32;20090;-81
2023/08/22 08:06:06;;;;;;;10.90;7.35;;;;;;;42.41;25.98;98482.31;4410726;32;20151;-81
2023/08/22 08:08:33;;;;;;;11.32;7.35;;;;;;;43.01;25.25;98480.25;4410512;32;20174;-81
2023/08/22 08:11:00;;;;;;;10.38;7.28;;;;;;;42.29;25.89;98475.44;4410714;32;20110;-81
2023/08/22 08:13:27;;;;;;;10.57;7.55;;;;;;;41.68;26.16;98478.41;4410819;32;20105;-81
2023/08/22 08:15:53;;;;;;;11.65;6.80;;;;;;;41.47;26.62;98481.97;4410168;32;20079;-81
2023/08/22 08:18:32;;;;;;;13.05;6.53;;;;;;;42.33;25.73;98476.56;4410752;32;20152;-82
2023/08/22 08:20:59;;;;;;;11.45;6.68;;;;;;;42.11;24.56;98487.50;4410726;32;20098;-81
2023/08/22 08:23:26;;;;;;;11.35;6.90;;;;;;;41.59;25.53;98480.78;4410242;32;20099;-81
2023/08/22 08:25:53;;;;;;;12.10;7.43;;;;;;;41.47;26.06;98482.78;4410560;32;20150;-81
2023/08/22 08:28:20;;;;;;;11.18;7.22;;;;;;;41.06;27.08;98476.09;4410650;32;20136;-80
2023/08/22 08:30:47;;;;;;;11.10;7.15;;;;;;;40.20;26.44;98478.34;4410401;32;20085;-80
2023/08/22 08:33:14;;;;;;;10.43;7.12;;;;;;;39.95;28.88;98478.69;4410571;32;20082;-80
2023/08/22 08:35:41;;;;;;;9.90;6.75;;;;;;;40.42;27.35;98473.03;4410630;32;20109;-80
2023/08/22 08:38:08;;;;;;;11.82;7.20;;;;;;;41.03;26.50;98485.50;4410152;32;20120;-80
2023/08/22 08:40:36;;;;;;;11.55;7.03;;;;;;;40.62;26.66;98480.59;4421775;32;20452;-81
2023/08/22 08:43:03;;;;;;;12.32;7.37;;;;;;;41.47;26.32;98485.50;4425568;32;20096;-81
2023/08/22 08:45:31;;;;;;;12.75;7.75;;;;;;;41.16;27.65;98478.91;4425693;32;20086;-80
2023/08/22 08:48:01;;;;;;;11.15;7.22;;;;;;;40.78;27.86;98474.34;4412360;32;20097;-80
2023/08/22 08:50:28;;;;;;;11.27;7.55;;;;;;;41.61;27.01;98478.63;4425738;32;20085;-80
2023/08/22 08:52:55;;;;;;;13.85;7.18;;;;;;;41.37;26.27;98474.59;4425900;32;20145;-80
2023/08/22 08:55:22;;;;;;;11.07;6.72;;;;;;;41.56;25.51;98475.84;4412211;32;20113;-80
2023/08/22 08:57:52;;;;;;;11.30;7.15;;;;;;;40.84;26.71;98476.06;4424996;32;20158;-80
2023/08/22 09:00:19;;;;;;;10.40;6.75;;;;;;;40.64;27.10;98476.59;4425688;32;20101;-80
2023/08/22 09:02:46;;;;;;;10.23;6.55;;;;;;;41.75;25.81;98465.50;4426132;32;20144;-80
2023/08/22 09:05:13;;;;;;;12.23;6.87;;;;;;;41.65;24.16;98473.50;4412165;32;20090;-79
2023/08/22 09:07:43;;;;;;;10.35;7.07;;;;;;;42.62;23.39;98468.91;4425832;32;20117;-80
2023/08/22 09:10:10;;;;;;;11.32;6.97;;;;;;;41.98;25.62;98472.47;4426341;32;20101;-80
2023/08/22 09:12:37;;;;;;;12.48;6.35;;;;;;;41.74;25.36;98473.88;4425686;32;20137;-80
2023/08/22 09:15:07;;;;;;;11.05;6.87;;;;;;;42.20;24.91;98466.97;4426024;32;20093;-80
2023/08/22 09:17:34;;;;;;;10.65;6.87;;;;;;;41.21;25.75;98476.25;4427779;32;20135;-80
2023/08/22 09:20:09;;;;;;;10.07;6.87;;;;;;;41.39;25.42;98468.91;4429492;32;20103;-80
2023/08/22 09:22:36;;;;;;;10.77;6.95;;;;;;;41.75;26.05;98464.69;4428754;32;20090;-80
2023/08/22 09:25:07;;;;;;;10.30;6.87;;;;;;;41.40;25.96;98465.12;4428637;32;20137;-80
2023/08/22 09:27:34;;;;;;;10.07;6.93;;;;;;;42.07;24.95;98468.22;4427682;32;20241;-80
2023/08/22 09:30:04;;;;;;;9.55;6.65;;;;;;;41.36;26.25;98463.97;4413753;32;20168;-80
2023/08/22 09:32:32;;;;;;;10.80;6.90;;;;;;;40.37;27.38;98462.91;4427505;32;20090;-80
2023/08/22 09:35:01;;;;;;;12.30;7.50;;;;;;;40.32;27.30;98457.44;4427385;32;20090;-80
2023/08/22 09:37:35;;;;;;;11.95;7.47;;;;;;;40.88;26.57;98463.69;4426317;32;20094;-80
2023/08/22 09:40:08;;;;;;;13.07;7.45;;;;;;;41.25;27.26;98461.13;4412639;32;20102;-80
2023/08/22 09:42:38;;;;;;;13.15;7.32;;;;;;;40.92;27.58;98455.88;4428922;32;20123;-80
2023/08/22 09:45:06;;;;;;;9.38;6.30;;;;;;;41.44;26.80;98447.28;4426948;32;20126;-80
2023/08/22 09:47:40;;;;;;;10.43;6.87;;;;;;;41.61;26.39;98459.66;4428082;32;20090;-80
2023/08/22 09:50:08;;;;;;;12.07;7.07;;;;;;;41.76;25.87;98452.78;4428760;32;20097;-80
2023/08/22 09:52:36;;;;;;;10.90;8.02;;;;;;;41.53;27.24;98451.19;4428708;32;20116;-80
2023/08/22 09:55:04;;;;;;;12.25;7.55;;;;;;;41.12;27.81;98449.88;4428103;32;20086;-80
2023/08/22 09:57:31;;;;;;;10.70;6.53;;;;;;;41.61;27.55;98443.41;4414359;32;20459;-81
2023/08/22 10:00:00;;;;;;;10.55;6.80;;;;;;;41.57;25.93;98436.84;4428459;32;20081;-80
2023/08/22 10:02:28;;;;;;;10.85;6.93;;;;;;;42.17;24.97;98434.97;4413118;32;20158;-81
2023/08/22 10:04:55;;;;;;;11.88;8.00;;;;;;;42.76;24.97;98437.53;4427807;32;20097;-80
2023/08/22 10:07:23;;;;;;;14.27;7.60;;;;;;;41.68;28.10;98436.94;4427838;32;20511;-80
2023/08/22 10:09:50;;;;;;;13.23;7.53;;;;;;;41.46;27.98;98437.81;4428652;32;20113;-80
2023/08/22 10:12:17;;;;;;;10.98;6.97;;;;;;;41.52;28.04;98433.28;4429236;32;20061;-81
2023/08/22 10:14:48;;;;;;;10.43;6.78;;;;;;;40.82;27.51;98434.88;4415417;32;20112;-80
2023/08/22 10:17:15;;;;;;;10.90;6.50;;;;;;;41.67;28.38;98433.41;4428644;32;20490;-80
2023/08/22 10:19:42;;;;;;;10.07;6.80;;;;;;;41.07;27.68;98425.50;4428926;32;20127;-80
2023/08/22 10:22:11;;;;;;;13.25;6.93;;;;;;;41.19;28.41;98426.16;4428650;32;20435;-80
2023/08/22 10:24:39;;;;;;;12.15;7.15;;;;;;;41.18;26.68;98428.06;4414756;32;20077;-80
2023/08/22 10:27:09;;;;;;;10.73;7.00;;;;;;;41.10;27.44;98417.66;4428503;32;20118;-80
2023/08/22 10:29:47;;;;;;;11.00;7.05;;;;;;;40.97;27.02;98423.47;4428778;32;20098;-80
2023/08/22 10:32:14;;;;;;;12.07;6.90;;;;;;;40.60;28.35;98421.34;4429648;32;20097;-80
2023/08/22 10:34:41;;;;;;;10.02;6.20;;;;;;;40.79;27.25;98419.16;4429312;32;20184;-80
2023/08/22 10:37:15;;;;;;;12.05;6.50;;;;;;;41.31;24.43;98430.37;4428053;32;20117;-81
2023/08/22 10:39:44;;;;;;;10.80;6.37;;;;;;;41.49;27.08;98423.78;4429408;32;20116;-80
2023/08/22 10:42:20;;;;;;;10.95;6.75;;;;;;;40.81;25.74;98427.84;4428392;32;20106;-80
2023/08/22 10:44:57;;;;;;;9.85;6.87;;;;;;;40.85;26.69;98422.78;4429505;32;20108;-80
2023/08/22 10:47:30;;;;;;;10.35;6.20;;;;;;;40.18;28.59;98418.28;4431659;32;20105;-80
2023/08/22 10:50:00;;;;;;;12.85;7.50;;;;;;;40.38;26.19;98413.19;4431471;32;20062;-80
2023/08/22 10:52:43;;;;;;;13.60;7.57;;;;;;;40.74;29.24;98424.53;4419035;32;20413;-80
2023/08/22 10:55:11;;;;;;;11.85;6.75;;;;;;;41.29;27.10;98404.66;4428490;32;20112;-80
2023/08/22 10:57:41;;;;;;;10.80;6.65;;;;;;;40.70;27.42;98407.16;4430539;32;20061;-80
2023/08/22 11:00:22;;;;;;;10.27;5.78;;;;;;;40.73;27.02;98404.78;4431955;32;20112;-80
2023/08/22 11:02:51;;;;;;;9.65;6.45;;;;;;;40.08;26.75;98396.53;4419474;32;20096;-80
2023/08/22 11:05:18;;;;;;;9.85;6.47;;;;;;;39.83;27.87;98400.44;4432660;32;20081;-80
2023/08/22 11:07:46;;;;;;;11.93;6.78;;;;;;;40.59;27.04;98408.09;4429640;32;20138;-80
2023/08/22 11:10:16;;;;;;;10.88;6.60;;;;;;;40.45;27.37;98400.34;4429526;32;20082;-80
2023/08/22 11:12:45;;;;;;;11.70;7.00;;;;;;;40.69;26.48;98400.09;4429544;32;20141;-78
2023/08/22 11:15:14;;;;;;;10.40;6.20;;;;;;;41.10;25.24;98406.03;4434271;32;20050;-78
2023/08/22 11:17:43;;;;;;;9.68;6.43;;;;;;;40.30;26.27;98404.69;4430319;32;158598;-79
2023/08/22 11:20:11;;;;;;;9.57;5.87;;;;;;;40.37;26.47;98398.03;4432837;32;20155;-80
2023/08/22 11:22:42;;;;;;;11.50;5.85;;;;;;;40.35;26.91;98399.34;4431469;32;20081;-80
2023/08/22 11:25:13;;;;;;;10.25;6.12;;;;;;;39.98;25.87;98390.94;4431541;32;20103;-80